Alice Springs Airport
YBAS : now visible

Airfield :











YOU CAN JOIN US ON...

 
LOGIN :

Register | Disclaimer

   EN    FR    IT 

 









Legend :    VFR   Marginal VFR   IFR   Intensive IFR   Very Intensive IFR
Visi :
Ceiling :
>= 8 km
>= 3000ft
5 to 8 km
1000 to 3000 ft
1500m to 5 km
500 to 1000 ft
800 to 1500m
200 to 500 ft
< 800m
< 200 ft
Symbols :   Thunderstorms  Fog  Heavy snow  Heavy precipitations  Wind > 20 kt







- Airport Elevation : 1789 ft
- IATA code : ASP


YBAS - Alice Springs

CURRENT METAR :
  • 220900Z AUTO 09004KT 9999 // NCD 20/M01 Q1017 RF00.0/000.0

EXPIRED METARs :
  • 220830Z AUTO 11007KT 9999 // NCD 22/M01 Q1017 RF00.0/000.0
  • 220800Z AUTO 11008KT 9999 // NCD 23/M01 Q1016 RF00.0/000.0
  • 220730Z AUTO 08006KT 9999 // NCD 24/M01 Q1016 RF00.0/000.0
  • 220700Z AUTO 11006KT 090V150 9999 // NCD 24/M01 Q1016 RF00.0/000.0
  • 220630Z AUTO 14005KT 060V210 9999 // NCD 24/M01 Q1016 RF00.0/000.0

TAF TAF YBAS
Valid from the 22 at 06:00 until the 23 at 06:00 UTC


220517Z 2206/2306 10008KT CAVOK
FM221500 30005KT CAVOK
FM230000 10010KT CAVOK
YMMM FIR / Oceania



MET'MAP, your aeronautical weather chart ! - Copyright ORBIFLY December 2007 - Disclaimer

ORBIFLY MET'MAP TEAM :

Programming & Development : Alexandra Zaïnal
Concept & Development : Baudouin d'Aumeries
Co-Development & Prog : Marc-Olivier Méhu
Technical & hardware support : Manuel Goepfert

Contact : metmap@orbifly.com




SOURCES & CREDITS :

   NOAA       Earth
Advisory